sensor_id;sensor_type;location;lat;lon;timestamp;pressure;altitude;pressure_sealevel;temperature;humidity
48404;BME280;34202;52.536;6.042;2022-09-09T00:02:28;100805.56;;;16.18;82.00
48404;BME280;34202;52.536;6.042;2022-09-09T00:07:47;100803.31;;;16.16;82.31
48404;BME280;34202;52.536;6.042;2022-09-09T00:13:16;100803.33;;;16.15;82.34
48404;BME280;34202;52.536;6.042;2022-09-09T00:18:36;100802.63;;;16.14;82.81
48404;BME280;34202;52.536;6.042;2022-09-09T00:23:40;100796.52;;;16.13;82.99
48404;BME280;34202;52.536;6.042;2022-09-09T00:29:14;100792.47;;;16.13;83.26
48404;BME280;34202;52.536;6.042;2022-09-09T00:34:21;100792.46;;;16.13;83.46
48404;BME280;34202;52.536;6.042;2022-09-09T00:39:41;100798.59;;;16.15;83.73
48404;BME280;34202;52.536;6.042;2022-09-09T00:50:28;100798.36;;;16.18;84.50
48404;BME280;34202;52.536;6.042;2022-09-09T00:55:45;100795.55;;;16.18;84.91
48404;BME280;34202;52.536;6.042;2022-09-09T01:00:57;100794.91;;;16.15;85.19
48404;BME280;34202;52.536;6.042;2022-09-09T01:06:11;100793.54;;;16.12;85.58
48404;BME280;34202;52.536;6.042;2022-09-09T01:11:21;100793.23;;;16.11;85.95
48404;BME280;34202;52.536;6.042;2022-09-09T01:16:22;100790.77;;;16.11;86.13
48404;BME280;34202;52.536;6.042;2022-09-09T01:26:43;100788.82;;;16.11;86.39
48404;BME280;34202;52.536;6.042;2022-09-09T01:31:55;100787.23;;;16.12;86.39
48404;BME280;34202;52.536;6.042;2022-09-09T01:37:02;100785.14;;;16.10;86.75
48404;BME280;34202;52.536;6.042;2022-09-09T01:42:06;100785.88;;;16.09;86.89
48404;BME280;34202;52.536;6.042;2022-09-09T01:47:08;100786.42;;;16.07;86.89
48404;BME280;34202;52.536;6.042;2022-09-09T01:52:08;100779.60;;;16.07;86.83
48404;BME280;34202;52.536;6.042;2022-09-09T01:57:28;100785.91;;;16.06;86.94
48404;BME280;34202;52.536;6.042;2022-09-09T02:02:43;100786.64;;;16.05;87.02
48404;BME280;34202;52.536;6.042;2022-09-09T02:07:52;100782.98;;;16.03;87.12
48404;BME280;34202;52.536;6.042;2022-09-09T02:13:07;100783.36;;;16.02;86.99
48404;BME280;34202;52.536;6.042;2022-09-09T02:18:08;100787.23;;;16.01;87.18
48404;BME280;34202;52.536;6.042;2022-09-09T02:23:11;100783.20;;;16.00;87.34
48404;BME280;34202;52.536;6.042;2022-09-09T02:28:14;100780.39;;;16.00;87.49
48404;BME280;34202;52.536;6.042;2022-09-09T02:33:17;100777.77;;;16.00;87.63
48404;BME280;34202;52.536;6.042;2022-09-09T02:38:18;100773.23;;;15.98;87.81
48404;BME280;34202;52.536;6.042;2022-09-09T02:43:21;100775.71;;;15.97;87.74
48404;BME280;34202;52.536;6.042;2022-09-09T02:48:30;100775.73;;;15.96;87.87
48404;BME280;34202;52.536;6.042;2022-09-09T02:53:57;100777.50;;;15.95;87.92
48404;BME280;34202;52.536;6.042;2022-09-09T02:59:04;100774.77;;;15.91;87.85
48404;BME280;34202;52.536;6.042;2022-09-09T03:04:04;100774.27;;;15.88;87.85
48404;BME280;34202;52.536;6.042;2022-09-09T03:09:05;100774.85;;;15.85;87.83
48404;BME280;34202;52.536;6.042;2022-09-09T03:14:05;100768.91;;;15.83;87.63
48404;BME280;34202;52.536;6.042;2022-09-09T03:19:06;100771.23;;;15.81;87.70
48404;BME280;34202;52.536;6.042;2022-09-09T03:24:07;100772.00;;;15.77;87.61
48404;BME280;34202;52.536;6.042;2022-09-09T03:29:07;100769.23;;;15.73;87.51
48404;BME280;34202;52.536;6.042;2022-09-09T03:34:07;100764.05;;;15.67;87.54
48404;BME280;34202;52.536;6.042;2022-09-09T03:39:08;100763.60;;;15.62;87.55
48404;BME280;34202;52.536;6.042;2022-09-09T03:44:08;100769.96;;;15.59;87.65
48404;BME280;34202;52.536;6.042;2022-09-09T03:49:08;100772.85;;;15.55;87.58
48404;BME280;34202;52.536;6.042;2022-09-09T03:54:10;100772.34;;;15.51;87.76
48404;BME280;34202;52.536;6.042;2022-09-09T03:59:10;100782.41;;;15.47;87.72
48404;BME280;34202;52.536;6.042;2022-09-09T04:04:11;100785.81;;;15.43;87.85
48404;BME280;34202;52.536;6.042;2022-09-09T04:09:12;100783.45;;;15.35;87.77
48404;BME280;34202;52.536;6.042;2022-09-09T04:14:12;100778.27;;;15.30;87.88
48404;BME280;34202;52.536;6.042;2022-09-09T04:19:13;100772.19;;;15.26;88.09
48404;BME280;34202;52.536;6.042;2022-09-09T04:24:14;100771.73;;;15.21;88.22
48404;BME280;34202;52.536;6.042;2022-09-09T04:29:16;100763.73;;;15.16;88.29
48404;BME280;34202;52.536;6.042;2022-09-09T04:34:16;100759.77;;;15.11;88.60
48404;BME280;34202;52.536;6.042;2022-09-09T04:39:17;100761.73;;;15.08;88.73
48404;BME280;34202;52.536;6.042;2022-09-09T04:44:17;100760.21;;;15.04;88.93
48404;BME280;34202;52.536;6.042;2022-09-09T04:49:18;100760.95;;;15.01;89.09
48404;BME280;34202;52.536;6.042;2022-09-09T04:54:18;100764.66;;;14.98;89.34
48404;BME280;34202;52.536;6.042;2022-09-09T04:59:19;100764.91;;;14.93;89.42
48404;BME280;34202;52.536;6.042;2022-09-09T05:04:19;100760.89;;;14.92;89.66
48404;BME280;34202;52.536;6.042;2022-09-09T05:09:19;100768.25;;;14.91;89.93
48404;BME280;34202;52.536;6.042;2022-09-09T05:14:20;100764.76;;;14.91;90.00
48404;BME280;34202;52.536;6.042;2022-09-09T05:19:20;100764.78;;;14.90;90.14
48404;BME280;34202;52.536;6.042;2022-09-09T05:24:20;100760.76;;;14.88;90.07
48404;BME280;34202;52.536;6.042;2022-09-09T05:29:23;100763.58;;;14.87;90.16
48404;BME280;34202;52.536;6.042;2022-09-09T05:34:23;100760.25;;;14.86;90.25
48404;BME280;34202;52.536;6.042;2022-09-09T05:39:23;100755.02;;;14.85;90.33
48404;BME280;34202;52.536;6.042;2022-09-09T05:44:24;100751.86;;;14.85;90.37
48404;BME280;34202;52.536;6.042;2022-09-09T05:49:27;100753.46;;;14.83;90.66
48404;BME280;34202;52.536;6.042;2022-09-09T05:54:27;100756.45;;;14.83;90.61
48404;BME280;34202;52.536;6.042;2022-09-09T05:59:28;100759.59;;;14.84;90.93
48404;BME280;34202;52.536;6.042;2022-09-09T06:04:28;100758.69;;;14.85;91.07
48404;BME280;34202;52.536;6.042;2022-09-09T06:09:30;100763.21;;;14.89;91.24
48404;BME280;34202;52.536;6.042;2022-09-09T06:14:31;100771.95;;;14.91;91.40
48404;BME280;34202;52.536;6.042;2022-09-09T06:19:31;100769.85;;;14.90;91.35
48404;BME280;34202;52.536;6.042;2022-09-09T06:24:32;100765.64;;;14.91;91.43
48404;BME280;34202;52.536;6.042;2022-09-09T06:29:33;100765.61;;;14.93;91.55
48404;BME280;34202;52.536;6.042;2022-09-09T06:34:33;100761.23;;;14.94;91.66
48404;BME280;34202;52.536;6.042;2022-09-09T06:39:33;100757.52;;;14.96;91.87
48404;BME280;34202;52.536;6.042;2022-09-09T06:44:34;100751.20;;;14.96;91.88
48404;BME280;34202;52.536;6.042;2022-09-09T06:49:34;100765.52;;;14.99;92.23
48404;BME280;34202;52.536;6.042;2022-09-09T06:54:35;100763.94;;;15.00;92.39
48404;BME280;34202;52.536;6.042;2022-09-09T06:59:37;100760.40;;;15.03;92.48
48404;BME280;34202;52.536;6.042;2022-09-09T07:04:38;100762.62;;;15.07;92.71
48404;BME280;34202;52.536;6.042;2022-09-09T07:09:38;100758.56;;;15.10;92.65
48404;BME280;34202;52.536;6.042;2022-09-09T07:14:38;100756.41;;;15.13;92.76
48404;BME280;34202;52.536;6.042;2022-09-09T07:19:39;100757.58;;;15.17;92.96
48404;BME280;34202;52.536;6.042;2022-09-09T07:24:39;100762.08;;;15.22;93.39
48404;BME280;34202;52.536;6.042;2022-09-09T07:29:40;100757.76;;;15.30;93.93
48404;BME280;34202;52.536;6.042;2022-09-09T07:34:40;100759.55;;;15.40;94.24
48404;BME280;34202;52.536;6.042;2022-09-09T07:39:40;100757.31;;;15.48;94.39
48404;BME280;34202;52.536;6.042;2022-09-09T07:44:41;100758.73;;;15.59;94.53
48404;BME280;34202;52.536;6.042;2022-09-09T07:49:41;100759.23;;;15.73;94.90
48404;BME280;34202;52.536;6.042;2022-09-09T07:54:42;100764.64;;;15.87;95.15
48404;BME280;34202;52.536;6.042;2022-09-09T07:59:42;100759.16;;;16.01;95.35
48404;BME280;34202;52.536;6.042;2022-09-09T08:04:42;100763.63;;;16.16;95.32
48404;BME280;34202;52.536;6.042;2022-09-09T08:09:43;100767.27;;;16.29;95.16
48404;BME280;34202;52.536;6.042;2022-09-09T08:14:43;100768.30;;;16.39;94.73
48404;BME280;34202;52.536;6.042;2022-09-09T08:19:44;100768.80;;;16.50;94.69
48404;BME280;34202;52.536;6.042;2022-09-09T08:24:44;100767.76;;;16.68;95.19
48404;BME280;34202;52.536;6.042;2022-09-09T08:29:44;100773.02;;;16.87;95.23
48404;BME280;34202;52.536;6.042;2022-09-09T08:34:45;100782.58;;;17.02;94.74
48404;BME280;34202;52.536;6.042;2022-09-09T08:39:45;100785.38;;;17.19;94.70
48404;BME280;34202;52.536;6.042;2022-09-09T08:50:31;100776.69;;;17.53;93.82
48404;BME280;34202;52.536;6.042;2022-09-09T08:55:53;100781.42;;;17.69;93.07
48404;BME280;34202;52.536;6.042;2022-09-09T09:11:23;100783.75;;;18.19;91.89
48404;BME280;34202;52.536;6.042;2022-09-09T09:21:42;100789.30;;;18.49;90.87
48404;BME280;34202;52.536;6.042;2022-09-09T09:26:44;100796.65;;;18.64;90.07
48404;BME280;34202;52.536;6.042;2022-09-09T09:31:55;100801.68;;;18.74;89.08
48404;BME280;34202;52.536;6.042;2022-09-09T09:37:00;100806.60;;;18.82;88.15
48404;BME280;34202;52.536;6.042;2022-09-09T09:42:12;100804.70;;;18.87;87.42
48404;BME280;34202;52.536;6.042;2022-09-09T09:47:21;100805.66;;;18.90;86.65
48404;BME280;34202;52.536;6.042;2022-09-09T09:52:24;100810.58;;;18.91;85.99
48404;BME280;34202;52.536;6.042;2022-09-09T09:57:31;100810.41;;;18.91;85.59
48404;BME280;34202;52.536;6.042;2022-09-09T10:02:39;100809.40;;;18.95;85.71
48404;BME280;34202;52.536;6.042;2022-09-09T10:07:41;100815.15;;;19.04;85.63
48404;BME280;34202;52.536;6.042;2022-09-09T10:13:04;100812.30;;;19.10;85.28
48404;BME280;34202;52.536;6.042;2022-09-09T10:18:25;100811.90;;;19.12;84.84
48404;BME280;34202;52.536;6.042;2022-09-09T10:29:59;100814.91;;;19.06;83.74
48404;BME280;34202;52.536;6.042;2022-09-09T10:35:04;100812.98;;;19.00;83.32
48404;BME280;34202;52.536;6.042;2022-09-09T10:45:34;100809.21;;;19.08;84.00
48404;BME280;34202;52.536;6.042;2022-09-09T10:50:52;100801.90;;;19.17;84.14
48404;BME280;34202;52.536;6.042;2022-09-09T10:56:03;100798.73;;;19.29;84.03
48404;BME280;34202;52.536;6.042;2022-09-09T11:01:12;100798.11;;;19.43;83.63
48404;BME280;34202;52.536;6.042;2022-09-09T11:06:19;100796.45;;;19.62;83.53
48404;BME280;34202;52.536;6.042;2022-09-09T11:11:30;100792.02;;;19.81;83.27
48404;BME280;34202;52.536;6.042;2022-09-09T11:16:52;100789.19;;;20.02;83.14
48404;BME280;34202;52.536;6.042;2022-09-09T11:21:55;100791.02;;;20.27;82.28
48404;BME280;34202;52.536;6.042;2022-09-09T11:27:14;100786.89;;;20.39;81.49
48404;BME280;34202;52.536;6.042;2022-09-09T11:37:45;100794.63;;;20.55;79.52
48404;BME280;34202;52.536;6.042;2022-09-09T11:43:02;100804.63;;;20.52;78.74
48404;BME280;34202;52.536;6.042;2022-09-09T11:48:05;100804.17;;;20.45;78.92
48404;BME280;34202;52.536;6.042;2022-09-09T11:53:20;100798.08;;;20.42;79.13
48404;BME280;34202;52.536;6.042;2022-09-09T11:58:22;100794.66;;;20.49;79.38
48404;BME280;34202;52.536;6.042;2022-09-09T12:03:40;100793.05;;;20.55;79.14
48404;BME280;34202;52.536;6.042;2022-09-09T12:08:46;100790.73;;;20.61;78.82
48404;BME280;34202;52.536;6.042;2022-09-09T12:13:54;100794.09;;;20.56;78.34
48404;BME280;34202;52.536;6.042;2022-09-09T12:19:03;100804.95;;;20.53;78.50
48404;BME280;34202;52.536;6.042;2022-09-09T12:24:24;100811.27;;;20.44;78.84
48404;BME280;34202;52.536;6.042;2022-09-09T12:29:47;100802.86;;;20.42;80.24
48404;BME280;34202;52.536;6.042;2022-09-09T12:35:02;100799.10;;;20.49;81.16
48404;BME280;34202;52.536;6.042;2022-09-09T12:40:19;100802.71;;;20.47;80.63
48404;BME280;34202;52.536;6.042;2022-09-09T12:50:22;100793.01;;;20.36;81.17
48404;BME280;34202;52.536;6.042;2022-09-09T12:55:32;100781.74;;;20.44;82.55
48404;BME280;34202;52.536;6.042;2022-09-09T13:00:35;100778.94;;;20.59;82.84
48404;BME280;34202;52.536;6.042;2022-09-09T13:05:38;100772.34;;;20.66;81.99
48404;BME280;34202;52.536;6.042;2022-09-09T13:10:56;100764.85;;;20.68;81.30
48404;BME280;34202;52.536;6.042;2022-09-09T13:16:00;100763.73;;;20.69;80.79
48404;BME280;34202;52.536;6.042;2022-09-09T13:21:01;100760.96;;;20.68;79.93
48404;BME280;34202;52.536;6.042;2022-09-09T13:26:25;100755.84;;;20.63;79.53
48404;BME280;34202;52.536;6.042;2022-09-09T13:31:32;100748.38;;;20.64;79.65
48404;BME280;34202;52.536;6.042;2022-09-09T13:36:34;100747.84;;;20.74;80.09
48404;BME280;34202;52.536;6.042;2022-09-09T13:41:41;100746.96;;;20.78;79.68
48404;BME280;34202;52.536;6.042;2022-09-09T13:46:42;100747.92;;;20.81;79.00
48404;BME280;34202;52.536;6.042;2022-09-09T13:51:44;100751.09;;;20.81;78.29
48404;BME280;34202;52.536;6.042;2022-09-09T13:56:47;100754.08;;;20.77;77.71
48404;BME280;34202;52.536;6.042;2022-09-09T14:01:50;100752.05;;;20.75;77.35
48404;BME280;34202;52.536;6.042;2022-09-09T14:06:53;100755.81;;;20.69;76.85
48404;BME280;34202;52.536;6.042;2022-09-09T14:11:53;100754.15;;;20.66;77.08
48404;BME280;34202;52.536;6.042;2022-09-09T14:16:55;100749.92;;;20.60;76.64
48404;BME280;34202;52.536;6.042;2022-09-09T14:21:55;100744.79;;;20.60;76.94
48404;BME280;34202;52.536;6.042;2022-09-09T14:26:56;100746.88;;;20.61;76.76
48404;BME280;34202;52.536;6.042;2022-09-09T14:31:56;100747.48;;;20.64;76.63
48404;BME280;34202;52.536;6.042;2022-09-09T14:36:57;100742.61;;;20.67;76.69
48404;BME280;34202;52.536;6.042;2022-09-09T14:41:57;100742.38;;;20.69;76.54
48404;BME280;34202;52.536;6.042;2022-09-09T14:46:58;100742.09;;;20.72;76.57
48404;BME280;34202;52.536;6.042;2022-09-09T14:51:58;100743.41;;;20.74;76.35
48404;BME280;34202;52.536;6.042;2022-09-09T14:56:59;100749.02;;;20.76;76.33
48404;BME280;34202;52.536;6.042;2022-09-09T15:01:59;100750.62;;;20.75;75.96
48404;BME280;34202;52.536;6.042;2022-09-09T15:07:04;100747.40;;;20.76;76.06
48404;BME280;34202;52.536;6.042;2022-09-09T15:12:04;100744.46;;;20.79;76.13
48404;BME280;34202;52.536;6.042;2022-09-09T15:17:04;100740.60;;;20.78;76.00
48404;BME280;34202;52.536;6.042;2022-09-09T15:22:05;100739.83;;;20.75;75.67
48404;BME280;34202;52.536;6.042;2022-09-09T15:27:07;100741.64;;;20.74;75.62
48404;BME280;34202;52.536;6.042;2022-09-09T15:32:07;100742.75;;;20.73;75.38
48404;BME280;34202;52.536;6.042;2022-09-09T15:37:10;100740.70;;;20.71;75.26
48404;BME280;34202;52.536;6.042;2022-09-09T15:42:13;100740.63;;;20.68;75.10
48404;BME280;34202;52.536;6.042;2022-09-09T15:47:13;100735.24;;;20.65;75.10
48404;BME280;34202;52.536;6.042;2022-09-09T15:52:13;100730.05;;;20.62;75.03
48404;BME280;34202;52.536;6.042;2022-09-09T15:57:14;100733.30;;;20.60;75.07
48404;BME280;34202;52.536;6.042;2022-09-09T16:02:14;100736.61;;;20.56;75.18
48404;BME280;34202;52.536;6.042;2022-09-09T16:07:14;100737.55;;;20.50;75.08
48404;BME280;34202;52.536;6.042;2022-09-09T16:12:15;100739.73;;;20.42;75.12
48404;BME280;34202;52.536;6.042;2022-09-09T16:17:16;100740.63;;;20.38;75.39
48404;BME280;34202;52.536;6.042;2022-09-09T16:22:16;100739.55;;;20.33;75.36
48404;BME280;34202;52.536;6.042;2022-09-09T16:27:18;100735.30;;;20.29;75.65
48404;BME280;34202;52.536;6.042;2022-09-09T16:32:19;100732.37;;;20.26;75.89
48404;BME280;34202;52.536;6.042;2022-09-09T16:37:19;100738.02;;;20.21;75.78
48404;BME280;34202;52.536;6.042;2022-09-09T16:42:20;100742.38;;;20.18;75.94
48404;BME280;34202;52.536;6.042;2022-09-09T16:47:20;100748.07;;;20.12;76.10
48404;BME280;34202;52.536;6.042;2022-09-09T16:52:21;100761.27;;;20.08;76.75
48404;BME280;34202;52.536;6.042;2022-09-09T16:57:21;100768.37;;;20.02;76.99
48404;BME280;34202;52.536;6.042;2022-09-09T17:02:22;100774.60;;;19.95;77.50
48404;BME280;34202;52.536;6.042;2022-09-09T17:07:22;100781.09;;;19.86;78.12
48404;BME280;34202;52.536;6.042;2022-09-09T17:12:23;100785.06;;;19.77;78.82
48404;BME280;34202;52.536;6.042;2022-09-09T17:17:23;100783.45;;;19.73;79.45
48404;BME280;34202;52.536;6.042;2022-09-09T17:22:23;100782.29;;;19.70;79.84
48404;BME280;34202;52.536;6.042;2022-09-09T17:27:26;100783.84;;;19.65;80.26
48404;BME280;34202;52.536;6.042;2022-09-09T17:32:26;100778.86;;;19.61;80.28
48404;BME280;34202;52.536;6.042;2022-09-09T17:37:28;100780.75;;;19.57;80.40
48404;BME280;34202;52.536;6.042;2022-09-09T17:42:29;100786.73;;;19.51;80.60
48404;BME280;34202;52.536;6.042;2022-09-09T17:47:29;100798.20;;;19.46;80.52
48404;BME280;34202;52.536;6.042;2022-09-09T17:52:31;100803.48;;;19.40;80.82
48404;BME280;34202;52.536;6.042;2022-09-09T17:57:31;100805.80;;;19.34;80.98
48404;BME280;34202;52.536;6.042;2022-09-09T18:02:31;100807.09;;;19.27;81.01
48404;BME280;34202;52.536;6.042;2022-09-09T18:07:32;100808.33;;;19.20;81.08
48404;BME280;34202;52.536;6.042;2022-09-09T18:12:33;100817.77;;;19.11;81.07
48404;BME280;34202;52.536;6.042;2022-09-09T18:17:34;100817.66;;;19.02;81.23
48404;BME280;34202;52.536;6.042;2022-09-09T18:22:34;100821.99;;;18.93;81.35
48404;BME280;34202;52.536;6.042;2022-09-09T18:27:34;100826.52;;;18.82;81.57
48404;BME280;34202;52.536;6.042;2022-09-09T18:32:34;100828.17;;;18.72;81.69
48404;BME280;34202;52.536;6.042;2022-09-09T18:37:35;100829.48;;;18.63;81.94
48404;BME280;34202;52.536;6.042;2022-09-09T18:42:37;100837.29;;;18.54;82.05
48404;BME280;34202;52.536;6.042;2022-09-09T18:47:37;100849.34;;;18.45;82.02
48404;BME280;34202;52.536;6.042;2022-09-09T18:52:37;100851.73;;;18.34;82.29
48404;BME280;34202;52.536;6.042;2022-09-09T18:57:37;100852.38;;;18.23;82.63
48404;BME280;34202;52.536;6.042;2022-09-09T19:02:38;100854.03;;;18.12;82.92
48404;BME280;34202;52.536;6.042;2022-09-09T19:07:38;100855.16;;;18.02;83.10
48404;BME280;34202;52.536;6.042;2022-09-09T19:12:40;100853.79;;;17.93;83.15
48404;BME280;34202;52.536;6.042;2022-09-09T19:17:40;100865.77;;;17.84;83.22
48404;BME280;34202;52.536;6.042;2022-09-09T19:22:41;100877.55;;;17.75;83.50
48404;BME280;34202;52.536;6.042;2022-09-09T19:27:41;100878.57;;;17.70;83.77
48404;BME280;34202;52.536;6.042;2022-09-09T19:32:42;100882.91;;;17.65;83.94
48404;BME280;34202;52.536;6.042;2022-09-09T19:37:42;100886.59;;;17.57;84.17
48404;BME280;34202;52.536;6.042;2022-09-09T19:42:43;100884.98;;;17.50;84.33
48404;BME280;34202;52.536;6.042;2022-09-09T19:47:43;100882.68;;;17.43;84.63
48404;BME280;34202;52.536;6.042;2022-09-09T19:52:43;100883.20;;;17.34;84.78
48404;BME280;34202;52.536;6.042;2022-09-09T19:57:44;100884.92;;;17.27;85.20
48404;BME280;34202;52.536;6.042;2022-09-09T20:02:44;100891.73;;;17.21;85.46
48404;BME280;34202;52.536;6.042;2022-09-09T20:07:44;100897.64;;;17.16;85.69
48404;BME280;34202;52.536;6.042;2022-09-09T20:12:45;100897.20;;;17.11;85.96
48404;BME280;34202;52.536;6.042;2022-09-09T20:17:45;100903.08;;;17.07;86.14
48404;BME280;34202;52.536;6.042;2022-09-09T20:22:45;100895.27;;;17.02;86.39
48404;BME280;34202;52.536;6.042;2022-09-09T20:27:46;100891.15;;;16.96;86.82
48404;BME280;34202;52.536;6.042;2022-09-09T20:32:46;100887.90;;;16.92;87.15
48404;BME280;34202;52.536;6.042;2022-09-09T20:37:46;100891.66;;;16.88;87.44
48404;BME280;34202;52.536;6.042;2022-09-09T20:42:47;100894.70;;;16.86;87.77
48404;BME280;34202;52.536;6.042;2022-09-09T20:47:47;100887.70;;;16.83;88.08
48404;BME280;34202;52.536;6.042;2022-09-09T20:52:48;100890.86;;;16.81;88.26
48404;BME280;34202;52.536;6.042;2022-09-09T20:57:48;100892.48;;;16.80;88.53
48404;BME280;34202;52.536;6.042;2022-09-09T21:02:50;100896.54;;;16.79;88.54
48404;BME280;34202;52.536;6.042;2022-09-09T21:07:51;100906.08;;;16.77;88.61
48404;BME280;34202;52.536;6.042;2022-09-09T21:12:51;100909.98;;;16.74;88.75
48404;BME280;34202;52.536;6.042;2022-09-09T21:17:53;100912.69;;;16.71;88.87
48404;BME280;34202;52.536;6.042;2022-09-09T21:22:53;100909.73;;;16.68;88.94
48404;BME280;34202;52.536;6.042;2022-09-09T21:27:54;100912.23;;;16.65;88.93
48404;BME280;34202;52.536;6.042;2022-09-09T21:32:54;100915.29;;;16.62;89.09
48404;BME280;34202;52.536;6.042;2022-09-09T21:37:54;100912.89;;;16.58;89.13
48404;BME280;34202;52.536;6.042;2022-09-09T21:42:55;100914.70;;;16.55;89.10
48404;BME280;34202;52.536;6.042;2022-09-09T21:47:55;100914.23;;;16.52;89.14
48404;BME280;34202;52.536;6.042;2022-09-09T21:52:56;100913.41;;;16.48;89.19
48404;BME280;34202;52.536;6.042;2022-09-09T21:57:56;100916.48;;;16.43;89.34
48404;BME280;34202;52.536;6.042;2022-09-09T22:03:00;100911.79;;;16.40;89.38
48404;BME280;34202;52.536;6.042;2022-09-09T22:08:01;100911.34;;;16.35;89.56
48404;BME280;34202;52.536;6.042;2022-09-09T22:13:02;100909.85;;;16.30;89.66
48404;BME280;34202;52.536;6.042;2022-09-09T22:18:03;100910.45;;;16.24;89.64
48404;BME280;34202;52.536;6.042;2022-09-09T22:23:03;100910.89;;;16.19;89.78
48404;BME280;34202;52.536;6.042;2022-09-09T22:28:06;100912.20;;;16.13;89.99
48404;BME280;34202;52.536;6.042;2022-09-09T22:33:07;100915.63;;;16.07;90.06
48404;BME280;34202;52.536;6.042;2022-09-09T22:38:09;100916.74;;;16.03;90.11
48404;BME280;34202;52.536;6.042;2022-09-09T22:43:17;100919.29;;;15.97;90.27
48404;BME280;34202;52.536;6.042;2022-09-09T22:48:18;100926.17;;;15.93;90.30
48404;BME280;34202;52.536;6.042;2022-09-09T22:53:18;100929.40;;;15.89;90.47
48404;BME280;34202;52.536;6.042;2022-09-09T22:58:19;100928.43;;;15.84;90.41
48404;BME280;34202;52.536;6.042;2022-09-09T23:03:21;100928.65;;;15.80;90.56
48404;BME280;34202;52.536;6.042;2022-09-09T23:08:23;100927.48;;;15.76;90.66
48404;BME280;34202;52.536;6.042;2022-09-09T23:13:25;100928.20;;;15.72;90.86
48404;BME280;34202;52.536;6.042;2022-09-09T23:18:28;100928.95;;;15.68;90.85
48404;BME280;34202;52.536;6.042;2022-09-09T23:23:28;100928.99;;;15.65;90.87
48404;BME280;34202;52.536;6.042;2022-09-09T23:28:30;100928.66;;;15.63;90.97
48404;BME280;34202;52.536;6.042;2022-09-09T23:33:32;100929.05;;;15.60;91.05
48404;BME280;34202;52.536;6.042;2022-09-09T23:38:37;100929.95;;;15.58;91.09
48404;BME280;34202;52.536;6.042;2022-09-09T23:43:38;100934.36;;;15.56;91.27
48404;BME280;34202;52.536;6.042;2022-09-09T23:48:39;100946.84;;;15.54;91.40
48404;BME280;34202;52.536;6.042;2022-09-09T23:53:39;100943.72;;;15.52;91.58
48404;BME280;34202;52.536;6.042;2022-09-09T23:58:40;100946.02;;;15.50;91.53
